createdAt,value
2018-09-16T00:01:56.452Z,19.70
2018-09-16T00:04:24.947Z,19.70
2018-09-16T00:06:53.517Z,19.60
2018-09-16T00:09:22.019Z,19.60
2018-09-16T00:11:50.534Z,19.60
2018-09-16T00:14:19.145Z,19.60
2018-09-16T00:16:48.480Z,19.50
2018-09-16T00:19:17.046Z,19.50
2018-09-16T00:21:45.570Z,19.50
2018-09-16T00:24:14.068Z,19.50
2018-09-16T00:26:42.581Z,19.40
2018-09-16T00:29:11.071Z,19.40
2018-09-16T00:31:39.652Z,19.30
2018-09-16T00:34:08.199Z,19.20
2018-09-16T00:36:36.734Z,19.30
2018-09-16T00:39:07.984Z,19.20
2018-09-16T00:41:36.754Z,19.20
2018-09-16T00:44:05.328Z,19.20
2018-09-16T00:46:33.870Z,19.20
2018-09-16T00:49:02.360Z,19.20
2018-09-16T00:51:30.877Z,19.10
2018-09-16T00:53:59.369Z,19.10
2018-09-16T00:56:27.883Z,19.00
2018-09-16T00:58:56.375Z,19.00
2018-09-16T01:01:24.900Z,19.00
2018-09-16T01:03:53.392Z,19.00
2018-09-16T01:06:27.260Z,18.90
2018-09-16T01:08:55.746Z,18.90
2018-09-16T01:11:24.286Z,18.90
2018-09-16T01:13:52.818Z,18.80
2018-09-16T01:16:21.395Z,18.80
2018-09-16T01:18:49.982Z,18.80
2018-09-16T01:21:45.683Z,18.70
2018-09-16T05:48:36.391Z,16.10
2018-09-16T06:52:50.458Z,15.80
2018-09-16T06:55:18.986Z,15.80
2018-09-16T06:57:47.631Z,15.80
2018-09-16T07:00:16.318Z,15.80
2018-09-16T07:02:45.097Z,15.70
2018-09-16T07:05:13.748Z,15.70
2018-09-16T07:07:42.254Z,15.70
2018-09-16T07:10:10.779Z,15.70
2018-09-16T07:12:39.270Z,15.70
2018-09-16T07:15:07.899Z,15.70
2018-09-16T07:17:36.413Z,15.70
2018-09-16T07:20:05.246Z,15.70
2018-09-16T07:22:33.768Z,15.80
2018-09-16T07:25:02.317Z,15.70
2018-09-16T07:27:30.858Z,15.70
2018-09-16T07:29:59.385Z,15.70
2018-09-16T07:32:27.899Z,15.70
2018-09-16T07:34:56.453Z,15.70
2018-09-16T07:37:24.947Z,15.70
2018-09-16T07:39:53.464Z,15.70
2018-09-16T07:42:21.967Z,15.70
2018-09-16T07:44:50.603Z,15.70
2018-09-16T07:47:19.149Z,15.70
2018-09-16T07:49:47.658Z,15.70
2018-09-16T07:52:16.183Z,15.70
2018-09-16T07:54:44.722Z,15.70
2018-09-16T07:57:13.242Z,15.70
2018-09-16T07:59:41.748Z,15.70
2018-09-16T08:02:10.321Z,15.70
2018-09-16T08:04:38.817Z,15.70
2018-09-16T08:07:07.409Z,15.70
2018-09-16T08:36:48.895Z,15.90
2018-09-16T08:39:17.433Z,15.90
2018-09-16T08:41:45.965Z,16.00
2018-09-16T08:44:14.469Z,16.00
2018-09-16T08:46:43.006Z,16.00
2018-09-16T08:49:11.519Z,16.10
2018-09-16T08:51:40.078Z,16.10
2018-09-16T08:54:08.626Z,16.10
2018-09-16T08:56:37.153Z,16.20
2018-09-16T08:59:05.779Z,16.20
2018-09-16T09:01:34.307Z,16.20
2018-09-16T09:04:02.845Z,16.30
2018-09-16T09:06:31.384Z,16.30
2018-09-16T09:08:59.898Z,16.30
2018-09-16T09:11:28.510Z,16.30
2018-09-16T09:13:57.031Z,16.30
2018-09-16T09:16:25.560Z,16.30
2018-09-16T09:18:54.097Z,16.30
2018-09-16T09:21:22.646Z,16.40
2018-09-16T09:23:51.146Z,16.40
2018-09-16T09:26:19.677Z,16.40
2018-09-16T09:28:48.350Z,16.30
2018-09-16T09:31:16.909Z,16.40
2018-09-16T09:33:45.415Z,16.40
2018-09-16T09:36:13.926Z,16.50
2018-09-16T09:38:42.422Z,16.50
2018-09-16T09:41:11.316Z,16.50
2018-09-16T09:43:39.894Z,16.50
2018-09-16T09:46:08.920Z,16.60
2018-09-16T09:48:37.716Z,16.50
2018-09-16T09:51:06.235Z,16.60
2018-09-16T09:53:34.746Z,16.60
2018-09-16T09:56:03.254Z,16.60
2018-09-16T09:58:31.762Z,16.60
2018-09-16T10:01:00.252Z,16.70
2018-09-16T10:03:28.798Z,16.80
2018-09-16T10:05:57.340Z,16.80
2018-09-16T10:08:25.829Z,16.90
2018-09-16T10:10:54.326Z,16.90
2018-09-16T10:13:22.853Z,17.00
2018-09-16T10:15:51.342Z,17.10
2018-09-16T10:18:19.854Z,17.20
2018-09-16T10:20:48.335Z,17.20
2018-09-16T10:23:16.857Z,17.30
2018-09-16T10:25:45.351Z,17.50
2018-09-16T10:28:13.900Z,17.60
2018-09-16T10:30:42.402Z,17.70
2018-09-16T10:33:10.909Z,17.90
2018-09-16T10:35:39.498Z,18.00
2018-09-16T10:38:08.035Z,18.10
2018-09-16T10:40:36.551Z,18.30
2018-09-16T10:43:05.095Z,18.40
2018-09-16T10:45:33.646Z,18.50
2018-09-16T10:48:02.178Z,18.60
2018-09-16T10:50:30.795Z,18.80
2018-09-16T10:52:59.331Z,19.00
2018-09-16T10:55:27.857Z,19.10
2018-09-16T10:57:56.409Z,19.20
2018-09-16T11:00:24.991Z,19.30
2018-09-16T11:02:53.527Z,19.40
2018-09-16T11:05:22.166Z,19.60
2018-09-16T11:07:50.785Z,19.80
2018-09-16T11:10:19.257Z,20.00
2018-09-16T11:12:47.800Z,20.10
2018-09-16T11:15:17.732Z,20.20
2018-09-16T11:17:46.256Z,20.20
2018-09-16T11:20:14.783Z,20.30
2018-09-16T11:22:43.330Z,20.30
2018-09-16T11:25:11.843Z,20.30
2018-09-16T11:27:40.365Z,20.30
2018-09-16T11:30:08.990Z,20.40
2018-09-16T11:32:37.543Z,20.40
2018-09-16T11:35:06.416Z,20.40
2018-09-16T11:37:35.034Z,20.50
2018-09-16T11:40:03.764Z,20.50
2018-09-16T11:42:32.278Z,20.50
2018-09-16T11:45:00.822Z,20.60
2018-09-16T11:47:29.414Z,20.60
2018-09-16T11:49:58.101Z,20.60
2018-09-16T11:52:26.890Z,20.50
2018-09-16T11:54:55.582Z,20.50
2018-09-16T11:57:24.126Z,20.50
2018-09-16T11:59:52.699Z,20.40
2018-09-16T12:02:21.562Z,20.40
2018-09-16T12:04:50.111Z,20.30
2018-09-16T12:07:19.918Z,20.30
2018-09-16T12:09:48.623Z,20.30
2018-09-16T12:12:17.140Z,20.40
2018-09-16T12:14:45.670Z,20.30
2018-09-16T12:17:14.207Z,20.30
2018-09-16T12:19:42.729Z,20.20
2018-09-16T12:22:11.251Z,20.10
2018-09-16T12:24:39.791Z,20.10
2018-09-16T12:27:08.351Z,20.00
2018-09-16T12:29:36.897Z,20.00
2018-09-16T12:32:05.514Z,20.00
2018-09-16T12:34:34.483Z,19.90
2018-09-16T12:37:03.079Z,19.90
2018-09-16T12:39:31.656Z,19.90
2018-09-16T12:42:00.165Z,19.80
2018-09-16T12:44:28.694Z,19.80
2018-09-16T12:46:57.220Z,19.80
2018-09-16T12:49:25.779Z,20.20
2018-09-16T12:51:54.360Z,20.20
2018-09-16T12:54:22.901Z,20.70
2018-09-16T12:56:51.460Z,20.20
2018-09-16T12:59:20.007Z,19.90
2018-09-16T13:01:48.613Z,19.90
2018-09-16T13:04:17.198Z,19.90
2018-09-16T13:06:45.779Z,19.90
2018-09-16T13:09:14.333Z,19.90
2018-09-16T13:11:42.859Z,19.90
2018-09-16T13:14:11.485Z,19.90
2018-09-16T13:16:40.013Z,19.90
2018-09-16T13:19:08.742Z,19.90
2018-09-16T13:21:37.249Z,19.90
2018-09-16T13:24:06.150Z,19.90
2018-09-16T13:26:34.923Z,20.00
2018-09-16T13:29:03.470Z,20.10
2018-09-16T13:31:31.985Z,20.10
2018-09-16T13:34:00.743Z,20.00
2018-09-16T13:36:29.283Z,19.90
2018-09-16T13:38:57.865Z,19.90
2018-09-16T13:41:26.401Z,19.90
2018-09-16T13:43:54.941Z,19.90
2018-09-16T13:46:23.484Z,19.90
2018-09-16T13:48:51.978Z,19.80
2018-09-16T13:51:20.589Z,19.80
2018-09-16T13:53:49.040Z,19.90
2018-09-16T13:56:17.592Z,19.80
2018-09-16T13:58:46.170Z,20.30
2018-09-16T14:01:14.724Z,19.70
2018-09-16T14:03:43.467Z,19.90
2018-09-16T14:06:12.636Z,19.90
2018-09-16T14:08:41.138Z,19.90
2018-09-16T14:11:09.651Z,19.90
2018-09-16T14:13:38.263Z,19.90
2018-09-16T14:16:06.864Z,19.90
2018-09-16T14:18:35.638Z,19.90
2018-09-16T14:21:04.295Z,19.90
2018-09-16T14:23:32.779Z,20.00
2018-09-16T14:26:01.627Z,19.90
2018-09-16T14:28:30.309Z,19.90
2018-09-16T14:30:59.254Z,20.10
2018-09-16T14:33:28.470Z,20.00
2018-09-16T14:35:57.810Z,20.00
2018-09-16T14:38:26.609Z,19.90
2018-09-16T14:40:55.879Z,19.90
2018-09-16T14:43:24.503Z,20.00
2018-09-16T14:45:53.034Z,20.00
2018-09-16T14:48:21.709Z,20.00
2018-09-16T14:50:51.191Z,20.00
2018-09-16T14:53:19.889Z,19.90
2018-09-16T14:55:48.541Z,20.00
2018-09-16T14:58:17.029Z,19.90
2018-09-16T15:00:45.628Z,19.90
2018-09-16T15:03:14.838Z,19.90
2018-09-16T15:05:43.525Z,19.90
2018-09-16T15:08:16.936Z,19.90
2018-09-16T15:10:46.681Z,19.90
2018-09-16T15:13:16.018Z,19.90
2018-09-16T15:15:44.691Z,19.90
2018-09-16T15:18:13.389Z,19.90
2018-09-16T15:20:41.926Z,20.00
2018-09-16T15:23:10.418Z,19.90
2018-09-16T15:25:38.921Z,19.90
2018-09-16T15:28:07.408Z,19.90
2018-09-16T15:30:35.950Z,19.90
2018-09-16T15:33:04.449Z,19.90
2018-09-16T15:35:32.997Z,19.90
2018-09-16T15:38:01.644Z,19.90
2018-09-16T15:40:30.383Z,19.90
2018-09-16T15:42:58.899Z,19.90
2018-09-16T15:45:27.388Z,19.90
2018-09-16T15:47:55.903Z,19.90
2018-09-16T15:50:24.409Z,19.90
2018-09-16T15:52:52.927Z,19.90
2018-09-16T15:55:21.555Z,19.90
2018-09-16T15:57:50.075Z,19.90
2018-09-16T16:00:18.809Z,19.90
2018-09-16T16:02:47.502Z,19.80
2018-09-16T16:05:15.996Z,19.80
2018-09-16T16:07:44.485Z,19.80
2018-09-16T16:10:12.986Z,19.80
2018-09-16T16:12:41.514Z,19.80
2018-09-16T16:15:10.043Z,19.80
2018-09-16T16:17:38.582Z,19.80
2018-09-16T16:20:07.182Z,19.80
2018-09-16T16:22:35.936Z,19.80
2018-09-16T16:25:04.864Z,19.80
2018-09-16T16:27:33.375Z,19.80
2018-09-16T16:30:01.870Z,19.80
2018-09-16T16:32:30.377Z,19.80
2018-09-16T16:34:58.977Z,19.80
2018-09-16T16:37:27.502Z,19.80
2018-09-16T16:39:56.002Z,19.80
2018-09-16T16:42:24.549Z,19.70
2018-09-16T16:44:53.073Z,19.70
2018-09-16T16:47:21.628Z,19.70
2018-09-16T16:49:50.133Z,19.70
2018-09-16T16:52:18.718Z,19.70
2018-09-16T16:54:47.298Z,19.70
2018-09-16T16:57:15.838Z,19.70
2018-09-16T16:59:44.354Z,19.70
2018-09-16T17:02:12.955Z,19.70
2018-09-16T17:04:41.519Z,19.70
2018-09-16T17:07:10.106Z,19.70
2018-09-16T17:09:38.623Z,19.60
2018-09-16T17:12:07.208Z,19.70
2018-09-16T17:14:35.708Z,19.60
2018-09-16T17:17:04.271Z,19.60
2018-09-16T17:19:33.547Z,19.60
2018-09-16T17:22:02.080Z,19.60
2018-09-16T17:24:30.594Z,19.60
2018-09-16T17:26:59.130Z,19.60
2018-09-16T17:29:27.626Z,19.50
2018-09-16T17:31:56.162Z,19.60
2018-09-16T17:34:24.725Z,19.50
2018-09-16T17:36:53.425Z,19.50
2018-09-16T17:39:22.013Z,19.50
2018-09-16T17:41:50.561Z,19.50
2018-09-16T17:44:19.079Z,19.50
2018-09-16T17:46:47.749Z,19.50
2018-09-16T17:49:16.431Z,19.50
2018-09-16T17:51:44.939Z,19.40
2018-09-16T17:54:13.555Z,19.40
2018-09-16T17:56:42.213Z,19.40
2018-09-16T17:59:10.723Z,19.40
2018-09-16T18:01:39.206Z,19.40
2018-09-16T18:04:07.747Z,19.40
2018-09-16T18:06:36.226Z,19.40
2018-09-16T18:09:07.852Z,19.30
2018-09-16T18:11:36.743Z,19.40
2018-09-16T18:14:05.275Z,19.30
2018-09-16T18:16:33.787Z,19.30
2018-09-16T18:19:02.496Z,19.30
2018-09-16T18:21:31.018Z,19.30
2018-09-16T18:23:59.608Z,19.30
2018-09-16T18:26:28.094Z,19.30
2018-09-16T18:28:56.614Z,19.30
2018-09-16T18:31:25.314Z,19.30
2018-09-16T18:33:53.820Z,19.20
2018-09-16T18:36:22.447Z,19.20
2018-09-16T18:38:51.091Z,19.20
2018-09-16T18:41:19.651Z,19.20
2018-09-16T18:43:48.204Z,19.20
2018-09-16T18:46:16.814Z,19.20
2018-09-16T18:48:45.346Z,19.20
2018-09-16T18:51:13.842Z,19.20
2018-09-16T18:53:42.813Z,19.20
2018-09-16T18:56:11.317Z,19.10
2018-09-16T18:58:39.858Z,19.10
2018-09-16T19:01:08.343Z,19.10
2018-09-16T19:03:36.877Z,19.10
2018-09-16T19:06:05.446Z,19.10
2018-09-16T19:08:36.154Z,19.10
2018-09-16T19:11:05.876Z,19.10
2018-09-16T19:13:34.437Z,19.10
2018-09-16T19:16:02.976Z,19.10
2018-09-16T19:18:31.533Z,19.00
2018-09-16T19:21:00.107Z,18.90
2018-09-16T19:23:28.642Z,19.00
2018-09-16T19:25:57.152Z,19.00
2018-09-16T19:28:25.954Z,19.00
2018-09-16T19:30:54.445Z,18.90
2018-09-16T19:33:23.066Z,18.90
2018-09-16T19:35:51.615Z,18.90
2018-09-16T19:38:20.179Z,18.90
2018-09-16T19:40:48.735Z,18.90
2018-09-16T19:43:17.261Z,18.90
2018-09-16T19:45:45.932Z,18.90
2018-09-16T19:48:14.838Z,18.90
2018-09-16T19:50:43.530Z,18.90
2018-09-16T19:53:12.079Z,18.80
2018-09-16T19:55:40.723Z,18.80
2018-09-16T19:58:09.385Z,18.80
2018-09-16T20:00:37.938Z,18.80
2018-09-16T20:03:06.531Z,18.80
2018-09-16T20:05:35.072Z,18.70
2018-09-16T20:08:03.589Z,18.70
2018-09-16T20:10:32.115Z,18.70
2018-09-16T20:13:00.639Z,18.70
2018-09-16T20:15:29.654Z,18.70
2018-09-16T20:17:58.181Z,18.70
2018-09-16T20:20:26.911Z,18.70
2018-09-16T20:22:55.413Z,18.70
2018-09-16T20:25:24.015Z,18.60
2018-09-16T20:27:52.605Z,18.60
2018-09-16T20:30:21.150Z,18.60
2018-09-16T20:32:49.676Z,18.60
2018-09-16T20:35:18.436Z,18.60
2018-09-16T20:37:47.009Z,18.60
2018-09-16T20:40:15.653Z,18.60
2018-09-16T20:42:44.166Z,18.60
2018-09-16T20:45:13.483Z,18.60
2018-09-16T20:47:42.000Z,18.50
2018-09-16T20:50:10.563Z,18.50
2018-09-16T20:52:39.137Z,18.60
2018-09-16T20:55:07.670Z,18.50
2018-09-16T20:57:36.538Z,18.50
2018-09-16T21:00:05.644Z,18.50
2018-09-16T21:02:34.198Z,18.50
2018-09-16T21:05:02.782Z,18.50
2018-09-16T21:07:31.377Z,18.50
2018-09-16T21:10:00.415Z,18.50
2018-09-16T21:12:28.955Z,18.50
2018-09-16T21:14:57.488Z,18.50
2018-09-16T21:17:26.033Z,18.50
2018-09-16T21:19:54.741Z,18.40
2018-09-16T21:22:23.256Z,18.40
2018-09-16T21:24:51.780Z,18.40
2018-09-16T21:27:20.306Z,18.40
2018-09-16T21:29:48.907Z,18.40
2018-09-16T21:32:17.515Z,18.40
2018-09-16T21:34:45.998Z,18.40
2018-09-16T21:37:14.519Z,18.40
2018-09-16T21:39:43.471Z,18.30
2018-09-16T21:42:11.986Z,18.30
2018-09-16T21:44:40.475Z,18.30
2018-09-16T21:47:09.007Z,18.30
2018-09-16T21:49:37.569Z,18.30
2018-09-16T21:52:06.122Z,18.30
2018-09-16T21:54:34.602Z,18.30
2018-09-16T21:57:03.113Z,18.30
2018-09-16T21:59:31.732Z,18.30
2018-09-16T22:02:00.238Z,18.30
2018-09-16T22:04:28.727Z,18.30
2018-09-16T22:06:57.251Z,18.30
2018-09-16T22:09:25.754Z,18.30
2018-09-16T22:11:55.015Z,18.30
2018-09-16T22:14:23.538Z,18.20
2018-09-16T22:16:52.037Z,18.20
2018-09-16T22:19:20.817Z,18.20
2018-09-16T22:21:49.311Z,18.20
2018-09-16T22:24:17.837Z,18.20
2018-09-16T22:26:46.319Z,18.20
2018-09-16T22:29:14.831Z,18.20
2018-09-16T22:31:43.435Z,18.20
2018-09-16T22:34:11.997Z,18.20
2018-09-16T22:36:40.528Z,18.20
2018-09-16T22:39:09.911Z,18.20
2018-09-16T22:41:38.435Z,18.20
2018-09-16T22:44:06.986Z,18.20
2018-09-16T22:46:35.496Z,18.20
2018-09-16T22:49:04.036Z,18.20
2018-09-16T22:51:32.566Z,18.10
2018-09-16T22:54:01.199Z,18.10
2018-09-16T22:56:29.730Z,18.10
2018-09-16T22:58:58.370Z,18.10
2018-09-16T23:01:27.009Z,18.10
2018-09-16T23:03:55.546Z,18.10
2018-09-16T23:06:24.058Z,18.10
2018-09-16T23:08:57.842Z,18.10
2018-09-16T23:11:26.351Z,18.10
2018-09-16T23:13:54.977Z,18.10
2018-09-16T23:16:23.501Z,18.10
2018-09-16T23:18:52.060Z,18.10
2018-09-16T23:21:20.637Z,18.10
2018-09-16T23:23:49.178Z,18.10
2018-09-16T23:26:17.747Z,18.10
2018-09-16T23:28:46.530Z,18.00
2018-09-16T23:31:15.046Z,18.00
2018-09-16T23:33:43.586Z,18.00
2018-09-16T23:36:12.108Z,18.00
2018-09-16T23:38:40.646Z,18.00
2018-09-16T23:41:09.143Z,18.00
2018-09-16T23:43:37.629Z,18.00
2018-09-16T23:46:06.384Z,18.00
2018-09-16T23:48:34.870Z,18.00
2018-09-16T23:51:03.423Z,18.00
2018-09-16T23:53:32.123Z,18.00
2018-09-16T23:56:00.666Z,18.00
2018-09-16T23:58:29.157Z,18.00
